sensor_id;sensor_type;location;lat;lon;timestamp;P1;durP1;ratioP1;P2;durP2;ratioP2
48925;SDS011;39838;59.938;30.642;2023-07-31T00:00:29;9.73;;;5.30;;
48925;SDS011;39838;59.938;30.642;2023-07-31T00:02:56;8.68;;;5.80;;
48925;SDS011;39838;59.938;30.642;2023-07-31T00:05:24;12.55;;;6.80;;
48925;SDS011;39838;59.938;30.642;2023-07-31T00:07:51;9.18;;;6.13;;
48925;SDS011;39838;59.938;30.642;2023-07-31T00:10:19;11.27;;;6.90;;
48925;SDS011;39838;59.938;30.642;2023-07-31T00:12:48;8.57;;;6.40;;
48925;SDS011;39838;59.938;30.642;2023-07-31T00:15:15;10.48;;;6.35;;
48925;SDS011;39838;59.938;30.642;2023-07-31T00:17:42;8.65;;;5.93;;
48925;SDS011;39838;59.938;30.642;2023-07-31T00:20:10;9.40;;;6.47;;
48925;SDS011;39838;59.938;30.642;2023-07-31T00:22:37;11.65;;;6.63;;
48925;SDS011;39838;59.938;30.642;2023-07-31T00:25:04;10.25;;;6.60;;
48925;SDS011;39838;59.938;30.642;2023-07-31T00:27:32;9.40;;;6.30;;
48925;SDS011;39838;59.938;30.642;2023-07-31T00:30:00;9.60;;;6.57;;
48925;SDS011;39838;59.938;30.642;2023-07-31T00:32:30;11.85;;;6.60;;
48925;SDS011;39838;59.938;30.642;2023-07-31T00:34:57;9.75;;;6.60;;
48925;SDS011;39838;59.938;30.642;2023-07-31T00:37:25;10.07;;;6.20;;
48925;SDS011;39838;59.938;30.642;2023-07-31T00:39:52;10.73;;;6.47;;
48925;SDS011;39838;59.938;30.642;2023-07-31T00:42:19;11.02;;;6.60;;
48925;SDS011;39838;59.938;30.642;2023-07-31T00:44:46;10.15;;;6.50;;
48925;SDS011;39838;59.938;30.642;2023-07-31T00:47:15;10.85;;;6.60;;
48925;SDS011;39838;59.938;30.642;2023-07-31T00:49:42;9.95;;;6.53;;
48925;SDS011;39838;59.938;30.642;2023-07-31T00:52:10;11.00;;;6.60;;
48925;SDS011;39838;59.938;30.642;2023-07-31T00:54:37;10.80;;;6.60;;
48925;SDS011;39838;59.938;30.642;2023-07-31T00:57:04;12.02;;;7.20;;
48925;SDS011;39838;59.938;30.642;2023-07-31T00:59:33;13.85;;;6.70;;
48925;SDS011;39838;59.938;30.642;2023-07-31T01:02:00;12.93;;;7.00;;
48925;SDS011;39838;59.938;30.642;2023-07-31T01:04:29;10.57;;;7.07;;
48925;SDS011;39838;59.938;30.642;2023-07-31T01:06:59;12.73;;;7.22;;
48925;SDS011;39838;59.938;30.642;2023-07-31T01:09:34;11.85;;;7.00;;
48925;SDS011;39838;59.938;30.642;2023-07-31T01:12:07;12.33;;;7.83;;
48925;SDS011;39838;59.938;30.642;2023-07-31T01:14:35;13.48;;;6.88;;
48925;SDS011;39838;59.938;30.642;2023-07-31T01:17:03;11.70;;;6.82;;
48925;SDS011;39838;59.938;30.642;2023-07-31T01:19:32;9.65;;;6.80;;
48925;SDS011;39838;59.938;30.642;2023-07-31T01:25:00;10.63;;;7.28;;
48925;SDS011;39838;59.938;30.642;2023-07-31T01:27:41;11.23;;;6.72;;
48925;SDS011;39838;59.938;30.642;2023-07-31T01:30:15;11.50;;;7.10;;
48925;SDS011;39838;59.938;30.642;2023-07-31T01:32:44;12.88;;;7.00;;
48925;SDS011;39838;59.938;30.642;2023-07-31T01:35:14;12.65;;;7.18;;
48925;SDS011;39838;59.938;30.642;2023-07-31T01:37:42;12.18;;;7.32;;
48925;SDS011;39838;59.938;30.642;2023-07-31T01:40:09;14.13;;;7.28;;
48925;SDS011;39838;59.938;30.642;2023-07-31T01:42:36;10.70;;;6.63;;
48925;SDS011;39838;59.938;30.642;2023-07-31T01:45:06;10.73;;;7.03;;
48925;SDS011;39838;59.938;30.642;2023-07-31T01:47:33;14.52;;;7.43;;
48925;SDS011;39838;59.938;30.642;2023-07-31T01:50:00;12.65;;;7.82;;
48925;SDS011;39838;59.938;30.642;2023-07-31T01:52:29;12.20;;;7.00;;
48925;SDS011;39838;59.938;30.642;2023-07-31T01:54:56;13.50;;;7.22;;
48925;SDS011;39838;59.938;30.642;2023-07-31T01:57:24;10.05;;;6.60;;
48925;SDS011;39838;59.938;30.642;2023-07-31T01:59:51;10.18;;;6.30;;
48925;SDS011;39838;59.938;30.642;2023-07-31T02:02:21;10.50;;;6.95;;
48925;SDS011;39838;59.938;30.642;2023-07-31T02:04:49;10.95;;;6.63;;
48925;SDS011;39838;59.938;30.642;2023-07-31T02:07:16;10.60;;;6.30;;
48925;SDS011;39838;59.938;30.642;2023-07-31T02:09:43;9.95;;;6.82;;
48925;SDS011;39838;59.938;30.642;2023-07-31T02:12:12;10.40;;;6.78;;
48925;SDS011;39838;59.938;30.642;2023-07-31T02:14:39;9.93;;;6.60;;
48925;SDS011;39838;59.938;30.642;2023-07-31T02:17:07;8.52;;;6.53;;
48925;SDS011;39838;59.938;30.642;2023-07-31T02:19:55;10.25;;;6.53;;
48925;SDS011;39838;59.938;30.642;2023-07-31T02:22:22;12.27;;;6.65;;
48925;SDS011;39838;59.938;30.642;2023-07-31T02:24:49;9.48;;;6.15;;
48925;SDS011;39838;59.938;30.642;2023-07-31T02:27:17;9.07;;;5.57;;
48925;SDS011;39838;59.938;30.642;2023-07-31T02:29:44;9.30;;;5.80;;
48925;SDS011;39838;59.938;30.642;2023-07-31T02:32:11;8.85;;;5.53;;
48925;SDS011;39838;59.938;30.642;2023-07-31T02:34:38;9.20;;;5.78;;
48925;SDS011;39838;59.938;30.642;2023-07-31T02:37:07;10.50;;;5.80;;
48925;SDS011;39838;59.938;30.642;2023-07-31T02:39:34;9.88;;;5.70;;
48925;SDS011;39838;59.938;30.642;2023-07-31T02:42:01;8.23;;;5.88;;
48925;SDS011;39838;59.938;30.642;2023-07-31T02:44:29;8.02;;;5.32;;
48925;SDS011;39838;59.938;30.642;2023-07-31T02:46:56;9.70;;;5.70;;
48925;SDS011;39838;59.938;30.642;2023-07-31T02:49:23;7.60;;;5.43;;
48925;SDS011;39838;59.938;30.642;2023-07-31T02:51:50;8.32;;;5.20;;
48925;SDS011;39838;59.938;30.642;2023-07-31T02:54:19;7.20;;;5.75;;
48925;SDS011;39838;59.938;30.642;2023-07-31T02:56:47;8.07;;;5.00;;
48925;SDS011;39838;59.938;30.642;2023-07-31T02:59:14;8.55;;;5.20;;
48925;SDS011;39838;59.938;30.642;2023-07-31T03:01:41;7.18;;;4.15;;
48925;SDS011;39838;59.938;30.642;2023-07-31T03:04:09;6.20;;;4.60;;
48925;SDS011;39838;59.938;30.642;2023-07-31T03:06:36;10.00;;;4.60;;
48925;SDS011;39838;59.938;30.642;2023-07-31T03:09:03;6.50;;;4.63;;
48925;SDS011;39838;59.938;30.642;2023-07-31T03:11:32;8.70;;;4.85;;
48925;SDS011;39838;59.938;30.642;2023-07-31T03:13:59;7.65;;;4.53;;
48925;SDS011;39838;59.938;30.642;2023-07-31T03:16:26;7.32;;;4.07;;
48925;SDS011;39838;59.938;30.642;2023-07-31T03:18:53;6.68;;;4.30;;
48925;SDS011;39838;59.938;30.642;2023-07-31T03:21:21;7.07;;;4.07;;
48925;SDS011;39838;59.938;30.642;2023-07-31T03:23:48;5.47;;;3.90;;
48925;SDS011;39838;59.938;30.642;2023-07-31T03:26:15;10.75;;;3.67;;
48925;SDS011;39838;59.938;30.642;2023-07-31T03:28:44;5.95;;;3.72;;
48925;SDS011;39838;59.938;30.642;2023-07-31T03:31:11;6.78;;;3.70;;
48925;SDS011;39838;59.938;30.642;2023-07-31T03:33:38;10.50;;;3.50;;
48925;SDS011;39838;59.938;30.642;2023-07-31T03:36:05;5.22;;;3.25;;
48925;SDS011;39838;59.938;30.642;2023-07-31T03:38:33;4.90;;;3.30;;
48925;SDS011;39838;59.938;30.642;2023-07-31T03:41:00;8.30;;;3.50;;
48925;SDS011;39838;59.938;30.642;2023-07-31T03:43:28;6.07;;;3.10;;
48925;SDS011;39838;59.938;30.642;2023-07-31T03:45:56;4.47;;;3.05;;
48925;SDS011;39838;59.938;30.642;2023-07-31T03:48:23;9.70;;;3.30;;
48925;SDS011;39838;59.938;30.642;2023-07-31T03:50:51;5.88;;;3.40;;
48925;SDS011;39838;59.938;30.642;2023-07-31T03:53:18;8.65;;;3.72;;
48925;SDS011;39838;59.938;30.642;2023-07-31T03:55:45;10.00;;;3.67;;
48925;SDS011;39838;59.938;30.642;2023-07-31T03:58:12;6.18;;;3.60;;
48925;SDS011;39838;59.938;30.642;2023-07-31T04:00:40;7.95;;;3.20;;
48925;SDS011;39838;59.938;30.642;2023-07-31T04:03:08;7.68;;;3.47;;
48925;SDS011;39838;59.938;30.642;2023-07-31T04:05:37;9.88;;;3.67;;
48925;SDS011;39838;59.938;30.642;2023-07-31T04:08:05;7.70;;;3.60;;
48925;SDS011;39838;59.938;30.642;2023-07-31T04:10:32;12.55;;;3.75;;
48925;SDS011;39838;59.938;30.642;2023-07-31T04:13:00;11.23;;;3.60;;
48925;SDS011;39838;59.938;30.642;2023-07-31T04:15:27;12.18;;;3.78;;
48925;SDS011;39838;59.938;30.642;2023-07-31T04:17:54;12.85;;;3.70;;
48925;SDS011;39838;59.938;30.642;2023-07-31T04:20:23;8.65;;;3.63;;
48925;SDS011;39838;59.938;30.642;2023-07-31T04:22:50;14.77;;;3.90;;
48925;SDS011;39838;59.938;30.642;2023-07-31T04:25:17;7.68;;;3.35;;
48925;SDS011;39838;59.938;30.642;2023-07-31T04:27:46;5.15;;;3.38;;
48925;SDS011;39838;59.938;30.642;2023-07-31T04:30:14;8.13;;;3.60;;
48925;SDS011;39838;59.938;30.642;2023-07-31T04:32:41;6.15;;;3.35;;
48925;SDS011;39838;59.938;30.642;2023-07-31T04:35:08;5.25;;;3.45;;
48925;SDS011;39838;59.938;30.642;2023-07-31T04:37:37;5.72;;;3.10;;
48925;SDS011;39838;59.938;30.642;2023-07-31T04:40:04;6.13;;;3.15;;
48925;SDS011;39838;59.938;30.642;2023-07-31T04:42:32;7.30;;;3.28;;
48925;SDS011;39838;59.938;30.642;2023-07-31T04:44:59;6.93;;;3.08;;
48925;SDS011;39838;59.938;30.642;2023-07-31T04:47:29;4.20;;;3.03;;
48925;SDS011;39838;59.938;30.642;2023-07-31T04:49:56;5.82;;;3.33;;
48925;SDS011;39838;59.938;30.642;2023-07-31T04:52:24;7.05;;;3.33;;
48925;SDS011;39838;59.938;30.642;2023-07-31T04:54:52;5.50;;;3.00;;
48925;SDS011;39838;59.938;30.642;2023-07-31T04:57:19;4.43;;;3.25;;
48925;SDS011;39838;59.938;30.642;2023-07-31T04:59:46;4.72;;;3.17;;
48925;SDS011;39838;59.938;30.642;2023-07-31T05:02:14;5.97;;;3.28;;
48925;SDS011;39838;59.938;30.642;2023-07-31T05:04:41;5.45;;;3.35;;
48925;SDS011;39838;59.938;30.642;2023-07-31T05:07:08;6.07;;;3.20;;
48925;SDS011;39838;59.938;30.642;2023-07-31T05:09:35;5.22;;;2.67;;
48925;SDS011;39838;59.938;30.642;2023-07-31T05:12:06;5.30;;;3.10;;
48925;SDS011;39838;59.938;30.642;2023-07-31T05:14:34;5.65;;;2.90;;
48925;SDS011;39838;59.938;30.642;2023-07-31T05:17:01;7.82;;;3.00;;
48925;SDS011;39838;59.938;30.642;2023-07-31T05:19:28;7.22;;;2.85;;
48925;SDS011;39838;59.938;30.642;2023-07-31T05:21:55;3.97;;;2.95;;
48925;SDS011;39838;59.938;30.642;2023-07-31T05:24:22;4.65;;;2.88;;
48925;SDS011;39838;59.938;30.642;2023-07-31T05:26:49;6.05;;;2.83;;
48925;SDS011;39838;59.938;30.642;2023-07-31T05:29:18;6.93;;;2.85;;
48925;SDS011;39838;59.938;30.642;2023-07-31T05:31:45;4.10;;;2.78;;
48925;SDS011;39838;59.938;30.642;2023-07-31T05:34:13;4.88;;;2.40;;
48925;SDS011;39838;59.938;30.642;2023-07-31T05:36:40;6.88;;;2.80;;
48925;SDS011;39838;59.938;30.642;2023-07-31T05:39:07;6.32;;;3.45;;
48925;SDS011;39838;59.938;30.642;2023-07-31T05:41:35;4.43;;;3.03;;
48925;SDS011;39838;59.938;30.642;2023-07-31T05:44:02;4.78;;;2.80;;
48925;SDS011;39838;59.938;30.642;2023-07-31T05:46:31;4.18;;;2.90;;
48925;SDS011;39838;59.938;30.642;2023-07-31T05:48:59;8.95;;;3.00;;
48925;SDS011;39838;59.938;30.642;2023-07-31T05:51:26;5.63;;;3.20;;
48925;SDS011;39838;59.938;30.642;2023-07-31T05:53:54;5.55;;;3.00;;
48925;SDS011;39838;59.938;30.642;2023-07-31T05:56:21;6.05;;;3.35;;
48925;SDS011;39838;59.938;30.642;2023-07-31T05:58:48;4.47;;;2.90;;
48925;SDS011;39838;59.938;30.642;2023-07-31T06:01:16;5.15;;;3.25;;
48925;SDS011;39838;59.938;30.642;2023-07-31T06:03:45;6.38;;;3.40;;
48925;SDS011;39838;59.938;30.642;2023-07-31T06:06:12;4.97;;;3.20;;
48925;SDS011;39838;59.938;30.642;2023-07-31T06:08:39;8.18;;;3.35;;
48925;SDS011;39838;59.938;30.642;2023-07-31T06:11:07;6.28;;;3.20;;
48925;SDS011;39838;59.938;30.642;2023-07-31T06:13:34;5.30;;;2.90;;
48925;SDS011;39838;59.938;30.642;2023-07-31T06:16:02;4.35;;;3.40;;
48925;SDS011;39838;59.938;30.642;2023-07-31T06:18:30;7.15;;;4.75;;
48925;SDS011;39838;59.938;30.642;2023-07-31T06:20:59;5.35;;;3.35;;
48925;SDS011;39838;59.938;30.642;2023-07-31T06:23:26;5.50;;;3.45;;
48925;SDS011;39838;59.938;30.642;2023-07-31T06:25:53;4.82;;;3.42;;
48925;SDS011;39838;59.938;30.642;2023-07-31T06:28:20;4.18;;;3.20;;
48925;SDS011;39838;59.938;30.642;2023-07-31T06:30:48;4.82;;;2.80;;
48925;SDS011;39838;59.938;30.642;2023-07-31T06:33:15;3.50;;;2.58;;
48925;SDS011;39838;59.938;30.642;2023-07-31T06:35:42;4.30;;;2.60;;
48925;SDS011;39838;59.938;30.642;2023-07-31T06:38:10;7.40;;;2.90;;
48925;SDS011;39838;59.938;30.642;2023-07-31T06:40:38;3.97;;;2.60;;
48925;SDS011;39838;59.938;30.642;2023-07-31T06:43:05;5.18;;;2.60;;
48925;SDS011;39838;59.938;30.642;2023-07-31T06:45:33;7.07;;;2.75;;
48925;SDS011;39838;59.938;30.642;2023-07-31T06:48:01;6.05;;;2.70;;
48925;SDS011;39838;59.938;30.642;2023-07-31T06:50:29;4.07;;;2.70;;
48925;SDS011;39838;59.938;30.642;2023-07-31T06:52:56;5.38;;;3.28;;
48925;SDS011;39838;59.938;30.642;2023-07-31T06:55:25;5.53;;;2.47;;
48925;SDS011;39838;59.938;30.642;2023-07-31T06:57:53;4.72;;;2.90;;
48925;SDS011;39838;59.938;30.642;2023-07-31T07:00:22;6.63;;;2.75;;
48925;SDS011;39838;59.938;30.642;2023-07-31T07:02:49;6.57;;;3.20;;
48925;SDS011;39838;59.938;30.642;2023-07-31T07:05:17;4.60;;;3.03;;
48925;SDS011;39838;59.938;30.642;2023-07-31T07:07:45;6.53;;;2.75;;
48925;SDS011;39838;59.938;30.642;2023-07-31T07:10:12;4.72;;;2.63;;
48925;SDS011;39838;59.938;30.642;2023-07-31T07:12:40;4.45;;;2.50;;
48925;SDS011;39838;59.938;30.642;2023-07-31T07:15:08;3.45;;;2.10;;
48925;SDS011;39838;59.938;30.642;2023-07-31T07:17:35;5.32;;;2.30;;
48925;SDS011;39838;59.938;30.642;2023-07-31T07:20:03;5.63;;;2.47;;
48925;SDS011;39838;59.938;30.642;2023-07-31T07:22:31;3.55;;;2.38;;
48925;SDS011;39838;59.938;30.642;2023-07-31T07:24:58;5.13;;;2.55;;
48925;SDS011;39838;59.938;30.642;2023-07-31T07:27:25;3.92;;;2.50;;
48925;SDS011;39838;59.938;30.642;2023-07-31T07:29:54;5.20;;;2.30;;
48925;SDS011;39838;59.938;30.642;2023-07-31T07:32:21;4.63;;;2.28;;
48925;SDS011;39838;59.938;30.642;2023-07-31T07:34:49;4.40;;;2.50;;
48925;SDS011;39838;59.938;30.642;2023-07-31T07:37:16;4.15;;;2.60;;
48925;SDS011;39838;59.938;30.642;2023-07-31T07:39:43;5.28;;;2.63;;
48925;SDS011;39838;59.938;30.642;2023-07-31T07:42:11;4.68;;;2.80;;
48925;SDS011;39838;59.938;30.642;2023-07-31T07:44:38;4.75;;;2.70;;
48925;SDS011;39838;59.938;30.642;2023-07-31T07:47:07;7.80;;;2.80;;
48925;SDS011;39838;59.938;30.642;2023-07-31T07:49:34;4.50;;;2.60;;
48925;SDS011;39838;59.938;30.642;2023-07-31T07:52:02;4.97;;;2.67;;
48925;SDS011;39838;59.938;30.642;2023-07-31T07:54:29;6.90;;;2.88;;
48925;SDS011;39838;59.938;30.642;2023-07-31T07:56:57;3.28;;;2.70;;
48925;SDS011;39838;59.938;30.642;2023-07-31T07:59:24;5.03;;;2.90;;
48925;SDS011;39838;59.938;30.642;2023-07-31T08:01:52;6.55;;;2.78;;
48925;SDS011;39838;59.938;30.642;2023-07-31T08:04:21;4.60;;;3.00;;
48925;SDS011;39838;59.938;30.642;2023-07-31T08:06:48;5.75;;;2.67;;
48925;SDS011;39838;59.938;30.642;2023-07-31T08:09:15;7.07;;;2.45;;
48925;SDS011;39838;59.938;30.642;2023-07-31T08:11:42;5.75;;;2.45;;
48925;SDS011;39838;59.938;30.642;2023-07-31T08:14:09;3.70;;;2.50;;
48925;SDS011;39838;59.938;30.642;2023-07-31T08:16:37;4.53;;;2.53;;
48925;SDS011;39838;59.938;30.642;2023-07-31T08:19:04;6.35;;;2.90;;
48925;SDS011;39838;59.938;30.642;2023-07-31T08:21:32;6.22;;;2.63;;
48925;SDS011;39838;59.938;30.642;2023-07-31T08:23:59;4.03;;;2.70;;
48925;SDS011;39838;59.938;30.642;2023-07-31T08:26:27;7.45;;;2.90;;
48925;SDS011;39838;59.938;30.642;2023-07-31T08:28:54;5.57;;;2.80;;
48925;SDS011;39838;59.938;30.642;2023-07-31T08:31:21;6.70;;;2.88;;
48925;SDS011;39838;59.938;30.642;2023-07-31T08:33:48;4.55;;;3.08;;
48925;SDS011;39838;59.938;30.642;2023-07-31T08:36:15;5.90;;;3.38;;
48925;SDS011;39838;59.938;30.642;2023-07-31T08:38:44;6.38;;;3.10;;
48925;SDS011;39838;59.938;30.642;2023-07-31T08:41:12;7.28;;;2.90;;
48925;SDS011;39838;59.938;30.642;2023-07-31T08:43:39;6.63;;;3.15;;
48925;SDS011;39838;59.938;30.642;2023-07-31T08:46:07;3.75;;;2.90;;
48925;SDS011;39838;59.938;30.642;2023-07-31T08:48:35;3.78;;;2.70;;
48925;SDS011;39838;59.938;30.642;2023-07-31T08:51:04;6.40;;;3.03;;
48925;SDS011;39838;59.938;30.642;2023-07-31T08:53:31;3.58;;;2.60;;
48925;SDS011;39838;59.938;30.642;2023-07-31T08:55:59;3.22;;;2.70;;
48925;SDS011;39838;59.938;30.642;2023-07-31T08:58:27;4.65;;;2.63;;
48925;SDS011;39838;59.938;30.642;2023-07-31T09:00:58;6.03;;;2.80;;
48925;SDS011;39838;59.938;30.642;2023-07-31T09:03:28;4.35;;;2.60;;
48925;SDS011;39838;59.938;30.642;2023-07-31T09:05:57;7.97;;;2.60;;
48925;SDS011;39838;59.938;30.642;2023-07-31T09:08:25;6.85;;;2.50;;
48925;SDS011;39838;59.938;30.642;2023-07-31T09:11:00;4.97;;;2.60;;
48925;SDS011;39838;59.938;30.642;2023-07-31T09:13:29;4.32;;;2.60;;
48925;SDS011;39838;59.938;30.642;2023-07-31T09:15:56;5.72;;;2.70;;
48925;SDS011;39838;59.938;30.642;2023-07-31T09:18:23;5.78;;;2.88;;
48925;SDS011;39838;59.938;30.642;2023-07-31T09:21:00;5.63;;;2.67;;
48925;SDS011;39838;59.938;30.642;2023-07-31T09:23:39;3.80;;;2.80;;
48925;SDS011;39838;59.938;30.642;2023-07-31T09:26:09;6.00;;;2.67;;
48925;SDS011;39838;59.938;30.642;2023-07-31T09:28:36;5.38;;;2.50;;
48925;SDS011;39838;59.938;30.642;2023-07-31T09:31:03;3.42;;;2.53;;
48925;SDS011;39838;59.938;30.642;2023-07-31T09:33:30;4.85;;;2.53;;
48925;SDS011;39838;59.938;30.642;2023-07-31T09:35:58;5.22;;;2.80;;
48925;SDS011;39838;59.938;30.642;2023-07-31T09:38:26;6.15;;;3.10;;
48925;SDS011;39838;59.938;30.642;2023-07-31T09:40:53;4.25;;;2.75;;
48925;SDS011;39838;59.938;30.642;2023-07-31T09:43:22;5.82;;;2.60;;
48925;SDS011;39838;59.938;30.642;2023-07-31T09:45:54;5.75;;;2.63;;
48925;SDS011;39838;59.938;30.642;2023-07-31T09:48:23;5.18;;;2.45;;
48925;SDS011;39838;59.938;30.642;2023-07-31T09:50:53;4.30;;;2.80;;
48925;SDS011;39838;59.938;30.642;2023-07-31T09:53:22;3.25;;;2.70;;
48925;SDS011;39838;59.938;30.642;2023-07-31T09:55:56;4.30;;;2.80;;
48925;SDS011;39838;59.938;30.642;2023-07-31T09:58:27;4.85;;;2.47;;
48925;SDS011;39838;59.938;30.642;2023-07-31T10:00:55;4.57;;;2.78;;
48925;SDS011;39838;59.938;30.642;2023-07-31T10:03:25;5.55;;;2.60;;
48925;SDS011;39838;59.938;30.642;2023-07-31T10:05:53;6.35;;;2.88;;
48925;SDS011;39838;59.938;30.642;2023-07-31T10:08:23;8.35;;;2.90;;
48925;SDS011;39838;59.938;30.642;2023-07-31T10:10:55;5.32;;;2.53;;
48925;SDS011;39838;59.938;30.642;2023-07-31T10:13:27;7.40;;;2.47;;
48925;SDS011;39838;59.938;30.642;2023-07-31T10:15:55;4.13;;;2.78;;
48925;SDS011;39838;59.938;30.642;2023-07-31T10:18:26;5.57;;;2.60;;
48925;SDS011;39838;59.938;30.642;2023-07-31T10:20:54;5.10;;;2.45;;
48925;SDS011;39838;59.938;30.642;2023-07-31T10:23:22;3.58;;;2.70;;
48925;SDS011;39838;59.938;30.642;2023-07-31T10:25:51;4.32;;;2.70;;
48925;SDS011;39838;59.938;30.642;2023-07-31T10:28:20;3.28;;;2.42;;
48925;SDS011;39838;59.938;30.642;2023-07-31T10:30:49;4.03;;;2.50;;
48925;SDS011;39838;59.938;30.642;2023-07-31T10:33:17;3.17;;;2.30;;
48925;SDS011;39838;59.938;30.642;2023-07-31T10:35:46;4.32;;;2.40;;
48925;SDS011;39838;59.938;30.642;2023-07-31T10:38:14;2.72;;;2.20;;
48925;SDS011;39838;59.938;30.642;2023-07-31T10:40:42;3.72;;;2.20;;
48925;SDS011;39838;59.938;30.642;2023-07-31T10:43:10;4.10;;;2.28;;
48925;SDS011;39838;59.938;30.642;2023-07-31T10:45:53;3.70;;;2.20;;
48925;SDS011;39838;59.938;30.642;2023-07-31T10:48:21;3.55;;;2.22;;
48925;SDS011;39838;59.938;30.642;2023-07-31T10:50:49;2.75;;;2.10;;
48925;SDS011;39838;59.938;30.642;2023-07-31T10:53:23;2.90;;;2.22;;
48925;SDS011;39838;59.938;30.642;2023-07-31T10:55:51;2.90;;;2.40;;
48925;SDS011;39838;59.938;30.642;2023-07-31T10:58:19;3.75;;;2.15;;
48925;SDS011;39838;59.938;30.642;2023-07-31T11:00:47;3.40;;;2.10;;
48925;SDS011;39838;59.938;30.642;2023-07-31T11:03:16;4.95;;;2.33;;
48925;SDS011;39838;59.938;30.642;2023-07-31T11:05:47;2.60;;;2.28;;
48925;SDS011;39838;59.938;30.642;2023-07-31T11:08:20;4.13;;;2.28;;
48925;SDS011;39838;59.938;30.642;2023-07-31T11:10:49;3.88;;;2.40;;
48925;SDS011;39838;59.938;30.642;2023-07-31T11:13:18;5.22;;;2.53;;
48925;SDS011;39838;59.938;30.642;2023-07-31T11:15:45;4.90;;;2.60;;
48925;SDS011;39838;59.938;30.642;2023-07-31T11:18:12;4.22;;;2.20;;
48925;SDS011;39838;59.938;30.642;2023-07-31T11:20:42;7.18;;;2.60;;
48925;SDS011;39838;59.938;30.642;2023-07-31T11:23:10;4.22;;;2.33;;
48925;SDS011;39838;59.938;30.642;2023-07-31T11:25:38;3.28;;;2.35;;
48925;SDS011;39838;59.938;30.642;2023-07-31T11:28:08;3.55;;;2.50;;
48925;SDS011;39838;59.938;30.642;2023-07-31T11:30:36;4.05;;;2.38;;
48925;SDS011;39838;59.938;30.642;2023-07-31T11:33:04;4.38;;;2.50;;
48925;SDS011;39838;59.938;30.642;2023-07-31T11:35:32;2.83;;;2.10;;
48925;SDS011;39838;59.938;30.642;2023-07-31T11:38:03;4.28;;;2.30;;
48925;SDS011;39838;59.938;30.642;2023-07-31T11:40:30;3.85;;;2.25;;
48925;SDS011;39838;59.938;30.642;2023-07-31T11:42:58;6.45;;;2.30;;
48925;SDS011;39838;59.938;30.642;2023-07-31T11:45:30;5.53;;;2.40;;
48925;SDS011;39838;59.938;30.642;2023-07-31T11:47:58;3.20;;;2.15;;
48925;SDS011;39838;59.938;30.642;2023-07-31T11:50:25;3.53;;;2.30;;
48925;SDS011;39838;59.938;30.642;2023-07-31T11:52:53;4.40;;;2.60;;
48925;SDS011;39838;59.938;30.642;2023-07-31T11:55:25;4.78;;;2.20;;
48925;SDS011;39838;59.938;30.642;2023-07-31T11:57:52;5.40;;;2.45;;
48925;SDS011;39838;59.938;30.642;2023-07-31T12:00:22;4.05;;;2.80;;
48925;SDS011;39838;59.938;30.642;2023-07-31T12:02:50;3.72;;;2.30;;
48925;SDS011;39838;59.938;30.642;2023-07-31T12:05:18;4.10;;;2.58;;
48925;SDS011;39838;59.938;30.642;2023-07-31T12:07:49;5.25;;;2.50;;
48925;SDS011;39838;59.938;30.642;2023-07-31T12:10:26;3.58;;;2.35;;
48925;SDS011;39838;59.938;30.642;2023-07-31T12:13:02;6.18;;;2.40;;
48925;SDS011;39838;59.938;30.642;2023-07-31T12:15:34;8.23;;;2.45;;
48925;SDS011;39838;59.938;30.642;2023-07-31T12:18:06;3.20;;;2.20;;
48925;SDS011;39838;59.938;30.642;2023-07-31T12:20:35;4.60;;;2.20;;
48925;SDS011;39838;59.938;30.642;2023-07-31T12:23:02;8.02;;;2.42;;
48925;SDS011;39838;59.938;30.642;2023-07-31T12:25:32;8.30;;;2.63;;
48925;SDS011;39838;59.938;30.642;2023-07-31T12:28:04;4.60;;;2.40;;
48925;SDS011;39838;59.938;30.642;2023-07-31T12:30:37;5.82;;;2.75;;
48925;SDS011;39838;59.938;30.642;2023-07-31T12:33:05;4.30;;;2.30;;
48925;SDS011;39838;59.938;30.642;2023-07-31T12:35:37;4.38;;;2.17;;
48925;SDS011;39838;59.938;30.642;2023-07-31T12:38:06;4.05;;;2.20;;
48925;SDS011;39838;59.938;30.642;2023-07-31T12:40:35;4.70;;;2.28;;
48925;SDS011;39838;59.938;30.642;2023-07-31T12:43:04;3.60;;;2.40;;
48925;SDS011;39838;59.938;30.642;2023-07-31T12:45:31;4.05;;;2.45;;
48925;SDS011;39838;59.938;30.642;2023-07-31T12:47:59;5.07;;;2.28;;
48925;SDS011;39838;59.938;30.642;2023-07-31T12:50:26;4.68;;;2.42;;
48925;SDS011;39838;59.938;30.642;2023-07-31T12:52:53;4.32;;;2.10;;
48925;SDS011;39838;59.938;30.642;2023-07-31T12:55:21;3.25;;;2.05;;
48925;SDS011;39838;59.938;30.642;2023-07-31T12:57:50;4.53;;;2.40;;
48925;SDS011;39838;59.938;30.642;2023-07-31T13:00:17;4.40;;;2.65;;
48925;SDS011;39838;59.938;30.642;2023-07-31T13:02:45;5.97;;;2.30;;
48925;SDS011;39838;59.938;30.642;2023-07-31T13:05:12;5.57;;;2.40;;
48925;SDS011;39838;59.938;30.642;2023-07-31T13:07:39;3.88;;;2.00;;
48925;SDS011;39838;59.938;30.642;2023-07-31T13:10:07;2.65;;;2.30;;
48925;SDS011;39838;59.938;30.642;2023-07-31T13:12:35;3.15;;;2.22;;
48925;SDS011;39838;59.938;30.642;2023-07-31T13:15:04;4.88;;;2.20;;
48925;SDS011;39838;59.938;30.642;2023-07-31T13:17:32;4.88;;;2.40;;
48925;SDS011;39838;59.938;30.642;2023-07-31T13:19:59;4.93;;;2.47;;
48925;SDS011;39838;59.938;30.642;2023-07-31T13:22:27;3.58;;;2.20;;
48925;SDS011;39838;59.938;30.642;2023-07-31T13:24:54;5.05;;;2.53;;
48925;SDS011;39838;59.938;30.642;2023-07-31T13:27:22;3.45;;;2.50;;
48925;SDS011;39838;59.938;30.642;2023-07-31T13:29:50;7.80;;;2.58;;
48925;SDS011;39838;59.938;30.642;2023-07-31T13:32:19;9.02;;;2.83;;
48925;SDS011;39838;59.938;30.642;2023-07-31T13:34:47;8.13;;;3.25;;
48925;SDS011;39838;59.938;30.642;2023-07-31T13:37:15;5.07;;;3.30;;
48925;SDS011;39838;59.938;30.642;2023-07-31T13:39:42;16.05;;;3.85;;
48925;SDS011;39838;59.938;30.642;2023-07-31T13:42:10;6.90;;;3.10;;
48925;SDS011;39838;59.938;30.642;2023-07-31T13:44:37;7.63;;;3.40;;
48925;SDS011;39838;59.938;30.642;2023-07-31T13:47:05;8.48;;;2.95;;
48925;SDS011;39838;59.938;30.642;2023-07-31T13:49:34;4.93;;;3.25;;
48925;SDS011;39838;59.938;30.642;2023-07-31T13:52:04;5.43;;;3.00;;
48925;SDS011;39838;59.938;30.642;2023-07-31T13:54:32;6.32;;;3.20;;
48925;SDS011;39838;59.938;30.642;2023-07-31T13:56:59;8.13;;;3.60;;
48925;SDS011;39838;59.938;30.642;2023-07-31T13:59:27;4.88;;;2.85;;
48925;SDS011;39838;59.938;30.642;2023-07-31T14:01:54;6.38;;;3.35;;
48925;SDS011;39838;59.938;30.642;2023-07-31T14:04:21;4.72;;;3.00;;
48925;SDS011;39838;59.938;30.642;2023-07-31T14:06:50;9.43;;;3.50;;
48925;SDS011;39838;59.938;30.642;2023-07-31T14:09:17;7.35;;;3.20;;
48925;SDS011;39838;59.938;30.642;2023-07-31T14:11:44;5.57;;;3.13;;
48925;SDS011;39838;59.938;30.642;2023-07-31T14:14:11;7.15;;;3.60;;
48925;SDS011;39838;59.938;30.642;2023-07-31T14:16:39;5.60;;;3.40;;
48925;SDS011;39838;59.938;30.642;2023-07-31T14:19:06;7.45;;;3.95;;
48925;SDS011;39838;59.938;30.642;2023-07-31T14:21:34;7.30;;;3.47;;
48925;SDS011;39838;59.938;30.642;2023-07-31T14:24:03;5.63;;;3.22;;
48925;SDS011;39838;59.938;30.642;2023-07-31T14:26:30;4.30;;;3.03;;
48925;SDS011;39838;59.938;30.642;2023-07-31T14:28:58;6.50;;;3.30;;
48925;SDS011;39838;59.938;30.642;2023-07-31T14:31:25;6.78;;;3.20;;
48925;SDS011;39838;59.938;30.642;2023-07-31T14:33:52;5.25;;;2.80;;
48925;SDS011;39838;59.938;30.642;2023-07-31T14:36:19;3.88;;;2.80;;
48925;SDS011;39838;59.938;30.642;2023-07-31T14:38:46;5.18;;;2.85;;
48925;SDS011;39838;59.938;30.642;2023-07-31T14:41:15;4.30;;;2.70;;